LFSI 242330Z AUTO 26005KT 8000 FEW008 SCT030 BKN035 10/10 Q1012

ElémentsDécodage
LFSI Station météo située sur l'aérodrome de SAINT-DIZIER Robinson
242330Z émis le 24 du mois à 23h30 UTC
AUTO Bulletin édité par un automate
26005KT vent du 260°, 05 noeuds
8000 visibilité horizontale de 8000 mètres
FEW008 nuages rares (1/8 à 2/8) à 800 pieds
SCT030 nuages épars (3/8 à 4/8) à 3000 pieds
BKN035 nuages morcelés (5/8 à 7/8) à 3500 pieds
10/10 température 10°C, point de rosée 10°C
 soit une humidité relative de 100%
Q1012 la pression au niveau de la mer (QNH) est de 1012 hPa